createdAt,value
2018-08-06T00:00:40.398Z,94130.52
2018-08-06T00:03:08.190Z,94131.60
2018-08-06T00:05:35.874Z,94135.08
2018-08-06T00:08:03.837Z,94134.20
2018-08-06T00:10:31.491Z,94130.94
2018-08-06T00:12:59.177Z,94129.30
2018-08-06T00:15:26.783Z,94127.40
2018-08-06T00:17:54.413Z,94124.98
2018-08-06T00:20:22.055Z,94120.94
2018-08-06T00:22:49.751Z,94120.97
2018-08-06T00:25:17.912Z,94122.86
2018-08-06T00:27:45.841Z,94124.41
2018-08-06T00:30:14.482Z,94121.91
2018-08-06T00:32:43.154Z,94124.55
2018-08-06T00:35:11.299Z,94121.11
2018-08-06T00:37:39.381Z,94111.93
2018-08-06T00:40:08.270Z,94114.07
2018-08-06T00:42:35.924Z,94107.61
2018-08-06T00:45:04.446Z,94105.70
2018-08-06T00:47:32.135Z,94103.77
2018-08-06T00:50:00.266Z,94102.75
2018-08-06T00:52:27.901Z,94099.88
2018-08-06T00:54:55.577Z,94101.05
2018-08-06T00:57:23.491Z,94091.55
2018-08-06T00:59:51.119Z,94091.54
2018-08-06T01:02:18.765Z,94088.06
2018-08-06T01:04:46.424Z,94084.88
2018-08-06T01:07:14.058Z,94083.29
2018-08-06T01:09:41.705Z,94087.59
2018-08-06T01:12:09.314Z,94084.14
2018-08-06T01:14:36.932Z,94077.80
2018-08-06T01:17:04.568Z,94080.60
2018-08-06T01:19:32.214Z,94075.70
2018-08-06T01:21:59.894Z,94079.94
2018-08-06T01:24:27.510Z,94080.66
2018-08-06T01:26:55.214Z,94080.03
2018-08-06T01:29:22.881Z,94071.09
2018-08-06T01:31:50.540Z,94072.75
2018-08-06T01:34:18.146Z,94068.98
2018-08-06T01:36:45.745Z,94060.98
2018-08-06T01:39:13.413Z,94064.70
2018-08-06T01:41:41.027Z,94065.22
2018-08-06T01:44:08.859Z,94064.09
2018-08-06T01:46:36.966Z,94065.59
2018-08-06T01:49:04.786Z,94057.89
2018-08-06T01:51:32.475Z,94062.60
2018-08-06T01:54:00.351Z,94059.89
2018-08-06T01:56:28.273Z,94055.93
2018-08-06T01:58:56.049Z,94048.45
2018-08-06T02:01:23.990Z,94055.45
2018-08-06T02:03:51.646Z,94052.50
2018-08-06T02:06:19.277Z,94059.55
2018-08-06T02:08:46.902Z,94057.66
2018-08-06T02:11:14.919Z,94055.11
2018-08-06T02:13:42.524Z,94054.89
2018-08-06T02:16:10.214Z,94048.98
2018-08-06T02:18:37.833Z,94053.78
2018-08-06T02:21:05.606Z,94050.43
2018-08-06T02:23:33.221Z,94047.77
2018-08-06T02:26:00.860Z,94042.63
2018-08-06T02:28:28.521Z,94046.57
2018-08-06T02:30:56.200Z,94037.88
2018-08-06T02:33:23.908Z,94035.83
2018-08-06T02:35:51.543Z,94037.11
2018-08-06T02:38:19.166Z,94042.38
2018-08-06T02:40:46.818Z,94041.06
2018-08-06T02:43:14.434Z,94042.60
2018-08-06T02:45:42.167Z,94037.17
2018-08-06T02:48:09.813Z,94041.87
2018-08-06T02:50:37.722Z,94036.48
2018-08-06T02:53:05.382Z,94033.73
2018-08-06T02:55:33.027Z,94032.59
2018-08-06T02:58:00.690Z,94032.86
2018-08-06T03:00:28.351Z,94025.63
2018-08-06T03:02:55.993Z,94034.09
2018-08-06T03:05:23.626Z,94031.14
2018-08-06T03:07:51.338Z,94022.40
2018-08-06T03:10:19.283Z,94024.77
2018-08-06T03:12:47.131Z,94023.31
2018-08-06T03:15:14.812Z,94025.47
2018-08-06T03:17:42.507Z,94028.64
2018-08-06T03:20:11.230Z,94028.01
2018-08-06T03:22:39.190Z,94028.18
2018-08-06T03:25:08.210Z,94033.33
2018-08-06T03:27:35.929Z,94029.33
2018-08-06T03:30:05.054Z,94026.06
2018-08-06T03:32:32.646Z,94027.65
2018-08-06T03:35:00.274Z,94029.62
2018-08-06T03:37:27.983Z,94033.33
2018-08-06T03:39:55.627Z,94035.42
2018-08-06T03:42:23.247Z,94043.05
2018-08-06T03:44:50.877Z,94037.08
2018-08-06T03:47:18.479Z,94038.88
2018-08-06T03:49:46.122Z,94037.94
2018-08-06T03:52:13.771Z,94040.42
2018-08-06T03:54:41.393Z,94041.46
2018-08-06T03:57:09.023Z,94040.67
2018-08-06T03:59:36.614Z,94036.14
2018-08-06T04:02:04.273Z,94034.75
2018-08-06T04:04:31.904Z,94037.11
2018-08-06T04:06:59.523Z,94037.19
2018-08-06T04:09:27.180Z,94047.72
2018-08-06T04:11:54.793Z,94049.05
2018-08-06T04:14:22.442Z,94041.33
2018-08-06T04:16:50.076Z,94047.38
2018-08-06T04:19:17.723Z,94044.95
2018-08-06T04:21:45.653Z,94053.61
2018-08-06T04:24:13.266Z,94051.76
2018-08-06T04:26:40.865Z,94049.91
2018-08-06T04:29:08.510Z,94050.25
2018-08-06T04:31:36.634Z,94054.78
2018-08-06T04:34:04.430Z,94056.92
2018-08-06T04:36:32.806Z,94058.47
2018-08-06T04:39:00.710Z,94048.66
2018-08-06T04:41:28.382Z,94047.45
2018-08-06T04:43:56.027Z,94052.41
2018-08-06T04:46:23.678Z,94047.14
2018-08-06T04:48:51.325Z,94046.48
2018-08-06T04:51:20.011Z,94047.78
2018-08-06T04:53:47.634Z,94045.71
2018-08-06T04:56:15.286Z,94052.02
2018-08-06T04:58:42.922Z,94049.15
2018-08-06T05:01:10.522Z,94061.84
2018-08-06T05:03:38.412Z,94056.32
2018-08-06T05:06:06.026Z,94052.73
2018-08-06T05:08:33.750Z,94057.08
2018-08-06T05:11:01.483Z,94056.67
2018-08-06T05:13:29.134Z,94064.09
2018-08-06T05:15:56.792Z,94058.84
2018-08-06T05:18:24.402Z,94063.28
2018-08-06T05:20:52.103Z,94062.06
2018-08-06T05:23:19.941Z,94052.47
2018-08-06T05:25:47.552Z,94048.64
2018-08-06T05:28:15.226Z,94052.89
2018-08-06T05:30:42.927Z,94059.75
2018-08-06T05:33:10.593Z,94056.77
2018-08-06T05:35:38.281Z,94060.86
2018-08-06T05:38:06.010Z,94051.02
2018-08-06T05:40:33.701Z,94051.64
2018-08-06T05:43:01.362Z,94053.34
2018-08-06T05:45:29.106Z,94053.80
2018-08-06T05:47:56.810Z,94048.30
2018-08-06T05:50:24.486Z,94054.24
2018-08-06T05:52:52.342Z,94049.54
2018-08-06T05:55:20.022Z,94055.57
2018-08-06T05:57:47.754Z,94048.61
2018-08-06T06:00:16.818Z,94051.28
2018-08-06T06:02:45.055Z,94060.16
2018-08-06T06:05:12.808Z,94059.91
2018-08-06T06:07:40.982Z,94062.61
2018-08-06T06:10:09.696Z,94067.41
2018-08-06T06:12:37.408Z,94071.16
2018-08-06T06:15:07.732Z,94066.30
2018-08-06T06:17:35.405Z,94072.25
2018-08-06T06:20:03.612Z,94066.88
2018-08-06T06:22:31.334Z,94070.63
2018-08-06T06:24:58.982Z,94069.81
2018-08-06T06:27:26.663Z,94064.70
2018-08-06T06:29:54.600Z,94069.20
2018-08-06T06:32:22.271Z,94068.25
2018-08-06T06:34:50.116Z,94071.13
2018-08-06T06:37:17.814Z,94064.05
2018-08-06T06:39:45.556Z,94062.77
2018-08-06T06:42:13.249Z,94059.33
2018-08-06T06:44:40.957Z,94055.52
2018-08-06T06:47:08.681Z,94058.64
2018-08-06T06:49:36.427Z,94049.36
2018-08-06T06:52:04.110Z,94052.16
2018-08-06T06:54:31.887Z,94048.73
2018-08-06T06:56:59.515Z,94048.62
2018-08-06T06:59:27.278Z,94050.33
2018-08-06T07:01:54.967Z,94045.61
2018-08-06T07:04:22.648Z,94048.17
2018-08-06T07:06:50.380Z,94045.12
2018-08-06T07:09:18.094Z,94042.59
2018-08-06T07:11:45.797Z,94039.41
2018-08-06T07:14:13.525Z,94040.33
2018-08-06T07:16:41.351Z,94038.22
2018-08-06T07:19:09.047Z,94036.34
2018-08-06T07:21:36.770Z,94036.25
2018-08-06T07:24:04.484Z,94032.30
2018-08-06T07:26:32.263Z,94026.97
2018-08-06T07:28:59.975Z,94029.90
2018-08-06T07:31:27.698Z,94030.05
2018-08-06T07:33:55.379Z,94022.20
2018-08-06T07:36:23.085Z,94024.42
2018-08-06T07:38:50.865Z,94024.51
2018-08-06T07:41:18.538Z,94036.29
2018-08-06T07:43:46.238Z,94034.41
2018-08-06T07:46:13.924Z,94025.49
2018-08-06T07:48:41.663Z,94029.86
2018-08-06T07:51:09.381Z,94034.69
2018-08-06T07:53:37.077Z,94027.09
2018-08-06T07:56:04.940Z,94028.02
2018-08-06T07:58:32.634Z,94025.41
2018-08-06T08:01:00.467Z,94023.34
2018-08-06T08:03:28.218Z,94022.14
2018-08-06T08:05:55.989Z,94016.08
2018-08-06T08:08:23.698Z,94028.48
2018-08-06T08:10:51.433Z,94018.27
2018-08-06T08:13:19.138Z,94013.97
2018-08-06T08:15:46.882Z,94014.66
2018-08-06T08:18:14.574Z,94012.88
2018-08-06T08:20:42.269Z,94015.00
2018-08-06T08:23:10.265Z,94014.53
2018-08-06T08:25:37.954Z,94022.30
2018-08-06T08:28:05.713Z,94015.03
2018-08-06T08:30:33.466Z,94015.33
2018-08-06T08:33:01.540Z,94010.79
2018-08-06T08:35:29.947Z,94011.05
2018-08-06T08:37:57.915Z,94006.84
2018-08-06T08:40:25.680Z,94010.16
2018-08-06T08:42:53.394Z,94004.73
2018-08-06T08:45:21.138Z,94008.42
2018-08-06T08:47:48.875Z,94006.78
2018-08-06T08:50:17.726Z,94002.55
2018-08-06T08:52:45.449Z,93997.38
2018-08-06T08:55:14.136Z,93994.19
2018-08-06T08:57:42.015Z,94000.06
2018-08-06T09:00:13.528Z,94000.33
2018-08-06T09:02:42.175Z,94000.33
2018-08-06T09:05:09.981Z,94001.00
2018-08-06T09:07:38.097Z,94003.65
2018-08-06T09:10:07.229Z,94002.14
2018-08-06T09:12:35.081Z,93997.95
2018-08-06T09:15:03.179Z,94001.44
2018-08-06T09:17:31.233Z,94004.09
2018-08-06T09:19:58.901Z,94002.95
2018-08-06T09:22:26.611Z,93996.39
2018-08-06T09:24:54.338Z,93997.02
2018-08-06T09:27:22.035Z,93995.52
2018-08-06T09:29:50.030Z,93993.93
2018-08-06T09:32:17.730Z,93990.60
2018-08-06T09:34:45.423Z,93988.67
2018-08-06T09:37:13.171Z,93981.27
2018-08-06T09:39:40.857Z,93976.91
2018-08-06T09:42:08.558Z,93984.20
2018-08-06T09:44:36.297Z,93993.56
2018-08-06T09:47:04.020Z,93990.41
2018-08-06T09:49:32.947Z,93982.08
2018-08-06T09:52:00.745Z,93978.95
2018-08-06T09:54:28.433Z,93976.67
2018-08-06T09:56:56.185Z,93980.19
2018-08-06T09:59:23.911Z,93973.98
2018-08-06T10:01:55.351Z,93964.53
2018-08-06T10:04:23.328Z,93969.70
2018-08-06T10:06:51.039Z,93960.65
2018-08-06T10:09:19.062Z,93968.00
2018-08-06T10:11:47.059Z,93961.80
2018-08-06T10:14:14.829Z,93960.31
2018-08-06T10:16:42.586Z,93954.34
2018-08-06T10:19:10.310Z,93957.72
2018-08-06T10:21:38.060Z,93949.74
2018-08-06T10:24:05.814Z,93956.59
2018-08-06T10:26:33.526Z,93948.76
2018-08-06T10:29:01.271Z,93953.74
2018-08-06T10:31:28.986Z,93946.59
2018-08-06T10:33:56.718Z,93942.78
2018-08-06T10:36:24.732Z,93942.66
2018-08-06T10:38:52.471Z,93945.83
2018-08-06T10:41:20.257Z,93940.16
2018-08-06T10:43:48.258Z,93936.74
2018-08-06T10:46:16.042Z,93933.56
2018-08-06T10:48:44.511Z,93931.52
2018-08-06T10:51:12.218Z,93941.28
2018-08-06T10:53:39.962Z,93935.50
2018-08-06T10:56:07.724Z,93933.97
2018-08-06T10:58:35.495Z,93936.75
2018-08-06T11:01:03.174Z,93933.76
2018-08-06T11:03:30.930Z,93927.64
2018-08-06T11:05:58.629Z,93927.70
2018-08-06T11:08:26.367Z,93925.95
2018-08-06T11:10:54.096Z,93920.34
2018-08-06T11:13:21.817Z,93919.82
2018-08-06T11:15:50.237Z,93917.01
2018-08-06T11:18:18.015Z,93919.42
2018-08-06T11:20:45.732Z,93920.05
2018-08-06T11:23:13.448Z,93919.33
2018-08-06T11:25:41.134Z,93913.60
2018-08-06T11:28:08.925Z,93916.87
2018-08-06T11:30:36.664Z,93909.41
2018-08-06T11:33:04.397Z,93916.59
2018-08-06T11:35:32.165Z,93905.19
2018-08-06T11:37:59.863Z,93901.64
2018-08-06T11:40:27.543Z,93899.25
2018-08-06T11:42:55.230Z,93902.18
2018-08-06T11:45:23.029Z,93893.80
2018-08-06T11:47:50.914Z,93891.78
2018-08-06T11:50:18.670Z,93890.64
2018-08-06T11:52:46.808Z,93888.16
2018-08-06T11:55:14.490Z,93887.30
2018-08-06T11:57:42.197Z,93888.57
2018-08-06T12:00:12.987Z,93887.20
2018-08-06T12:02:40.742Z,93884.89
2018-08-06T12:05:08.484Z,93878.56
2018-08-06T12:07:36.624Z,93877.02
2018-08-06T12:10:05.274Z,93877.03
2018-08-06T12:12:33.025Z,93874.96
2018-08-06T12:15:00.759Z,93866.13
2018-08-06T12:17:28.449Z,93870.69
2018-08-06T12:19:56.154Z,93865.09
2018-08-06T12:22:23.879Z,93859.20
2018-08-06T12:24:51.629Z,93859.30
2018-08-06T12:27:19.363Z,93860.66
2018-08-06T12:29:47.016Z,93848.89
2018-08-06T12:32:14.703Z,93848.64
2018-08-06T12:34:42.635Z,93844.09
2018-08-06T12:37:10.321Z,93843.43
2018-08-06T12:39:38.050Z,93849.55
2018-08-06T12:42:05.809Z,93841.61
2018-08-06T12:44:33.556Z,93848.89
2018-08-06T12:47:01.331Z,93837.67
2018-08-06T12:49:29.041Z,93835.51
2018-08-06T12:51:56.718Z,93834.11
2018-08-06T12:54:24.445Z,93831.62
2018-08-06T12:56:52.158Z,93838.55
2018-08-06T12:59:20.362Z,93832.91
2018-08-06T13:01:48.026Z,93832.25
2018-08-06T13:04:15.733Z,93822.64
2018-08-06T13:06:43.427Z,93817.32
2018-08-06T13:09:11.147Z,93810.23
2018-08-06T13:11:38.882Z,93810.52
2018-08-06T13:14:07.013Z,93809.39
2018-08-06T13:16:35.057Z,93810.97
2018-08-06T13:19:02.774Z,93813.45
2018-08-06T13:21:30.586Z,93807.52
2018-08-06T13:23:58.269Z,93806.67
2018-08-06T13:26:25.974Z,93799.18
2018-08-06T13:28:53.637Z,93801.67
2018-08-06T13:31:21.367Z,93801.22
2018-08-06T13:33:49.030Z,93793.36
2018-08-06T13:36:16.739Z,93794.63
2018-08-06T13:38:44.411Z,93796.23
2018-08-06T13:41:12.094Z,93789.87
2018-08-06T13:43:39.757Z,93791.61
2018-08-06T13:46:08.126Z,93782.76
2018-08-06T13:48:35.823Z,93785.08
2018-08-06T13:51:03.518Z,93786.86
2018-08-06T13:53:31.369Z,93782.37
2018-08-06T13:55:59.097Z,93781.72
2018-08-06T13:58:26.841Z,93781.02
2018-08-06T14:00:54.608Z,93773.87
2018-08-06T14:03:22.313Z,93778.48
2018-08-06T14:05:50.028Z,93769.41
2018-08-06T14:08:17.771Z,93775.38
2018-08-06T14:10:45.501Z,93761.66
2018-08-06T14:13:13.197Z,93761.01
2018-08-06T14:15:40.894Z,93760.77
2018-08-06T14:18:08.584Z,93754.64
2018-08-06T14:20:36.278Z,93751.02
2018-08-06T14:23:03.977Z,93753.56
2018-08-06T14:25:31.667Z,93760.53
2018-08-06T14:28:00.466Z,93758.63
2018-08-06T14:30:28.159Z,93755.31
2018-08-06T14:32:55.886Z,93757.14
2018-08-06T14:35:23.550Z,93756.25
2018-08-06T14:37:51.309Z,93751.67
2018-08-06T14:40:19.351Z,93747.66
2018-08-06T14:42:47.378Z,93741.78
2018-08-06T14:45:15.200Z,93745.95
2018-08-06T14:47:42.939Z,93746.00
2018-08-06T14:50:11.767Z,93749.52
2018-08-06T14:52:39.494Z,93747.92
2018-08-06T14:55:08.826Z,93748.32
2018-08-06T14:57:37.725Z,93744.92
2018-08-06T15:00:07.131Z,93742.44
2018-08-06T15:02:34.839Z,93739.02
2018-08-06T15:05:02.550Z,93745.52
2018-08-06T15:07:30.306Z,93751.81
2018-08-06T15:09:57.947Z,93750.30
2018-08-06T15:12:25.964Z,93741.05
2018-08-06T15:14:53.738Z,93739.79
2018-08-06T15:17:21.464Z,93737.75
2018-08-06T15:19:49.155Z,93734.00
2018-08-06T15:22:16.884Z,93735.36
2018-08-06T15:24:44.578Z,93729.81
2018-08-06T15:27:12.374Z,93729.20
2018-08-06T15:29:40.061Z,93729.92
2018-08-06T15:32:08.216Z,93720.72
2018-08-06T15:34:35.867Z,93717.03
2018-08-06T15:37:03.987Z,93723.83
2018-08-06T15:39:31.735Z,93723.93
2018-08-06T15:41:59.447Z,93724.74
2018-08-06T15:44:27.149Z,93724.05
2018-08-06T15:46:54.810Z,93719.64
2018-08-06T15:49:22.514Z,93721.11
2018-08-06T15:51:50.190Z,93717.05
2018-08-06T15:54:17.850Z,93716.34
2018-08-06T15:56:45.542Z,93709.09
2018-08-06T15:59:13.218Z,93719.08
2018-08-06T16:01:40.906Z,93711.48
2018-08-06T16:04:08.674Z,93714.34
2018-08-06T16:06:36.368Z,93710.92
2018-08-06T16:09:05.814Z,93707.30
2018-08-06T16:11:33.552Z,93705.47
2018-08-06T16:14:01.210Z,93709.78
2018-08-06T16:16:28.927Z,93698.22
2018-08-06T16:18:56.608Z,93700.42
2018-08-06T16:21:24.510Z,93694.86
2018-08-06T16:23:52.502Z,93697.19
2018-08-06T16:26:20.216Z,93695.11
2018-08-06T16:28:47.914Z,93689.91
2018-08-06T16:31:15.692Z,93686.30
2018-08-06T16:33:43.571Z,93691.48
2018-08-06T16:36:11.263Z,93695.18
2018-08-06T16:38:38.982Z,93700.63
2018-08-06T16:41:06.734Z,93698.91
2018-08-06T16:43:34.423Z,93699.30
2018-08-06T16:46:02.206Z,93696.34
2018-08-06T16:48:29.999Z,93699.23
2018-08-06T16:50:57.743Z,93697.52
2018-08-06T16:53:25.447Z,93702.16
2018-08-06T16:55:53.161Z,93701.92
2018-08-06T16:58:20.823Z,93703.41
2018-08-06T17:00:48.615Z,93695.27
2018-08-06T17:03:16.338Z,93709.08
2018-08-06T17:05:44.046Z,93700.70
2018-08-06T17:08:11.830Z,93702.94
2018-08-06T17:10:39.711Z,93704.77
2018-08-06T17:13:07.410Z,93706.70
2018-08-06T17:15:35.145Z,93699.03
2018-08-06T17:18:02.878Z,93697.04
2018-08-06T17:20:30.622Z,93693.91
2018-08-06T17:22:58.756Z,93701.07
2018-08-06T17:25:26.506Z,93700.34
2018-08-06T17:27:54.239Z,93702.78
2018-08-06T17:30:21.950Z,93701.58
2018-08-06T17:32:49.710Z,93705.57
2018-08-06T17:35:17.439Z,93703.45
2018-08-06T17:37:45.207Z,93705.70
2018-08-06T17:40:14.516Z,93701.14
2018-08-06T17:42:42.313Z,93701.10
2018-08-06T17:45:11.663Z,93702.89
2018-08-06T17:47:39.487Z,93702.37
2018-08-06T17:50:08.033Z,93706.78
2018-08-06T17:52:35.771Z,93703.33
2018-08-06T17:55:03.500Z,93706.68
2018-08-06T17:57:31.387Z,93704.52
2018-08-06T17:59:59.108Z,93707.88
2018-08-06T18:02:26.800Z,93713.76
2018-08-06T18:04:55.545Z,93706.64
2018-08-06T18:07:23.230Z,93707.93
2018-08-06T18:09:50.928Z,93707.80
2018-08-06T18:12:18.953Z,93717.54
2018-08-06T18:14:46.623Z,93716.28
2018-08-06T18:17:14.327Z,93727.94
2018-08-06T18:19:42.046Z,93730.94
2018-08-06T18:22:09.724Z,93735.55
2018-08-06T18:24:37.440Z,93739.94
2018-08-06T18:27:05.234Z,93738.86
2018-08-06T18:29:33.061Z,93743.63
2018-08-06T18:32:00.892Z,93741.42
2018-08-06T18:34:28.617Z,93742.90
2018-08-06T18:36:56.396Z,93733.36
2018-08-06T18:39:24.030Z,93737.41
2018-08-06T18:41:51.766Z,93735.73
2018-08-06T18:44:19.446Z,93741.63
2018-08-06T18:46:47.111Z,93742.57
2018-08-06T18:49:15.180Z,93740.80
2018-08-06T18:51:42.878Z,93742.98
2018-08-06T18:54:10.571Z,93753.05
2018-08-06T18:56:38.343Z,93756.93
2018-08-06T18:59:06.342Z,93748.36
2018-08-06T19:01:34.074Z,93753.75
2018-08-06T19:04:01.881Z,93753.30
2018-08-06T19:06:29.585Z,93755.46
2018-08-06T19:08:57.345Z,93761.89
2018-08-06T19:11:25.052Z,93767.55
2018-08-06T19:13:58.777Z,93770.51
2018-08-06T19:16:26.502Z,93777.42
2018-08-06T19:19:00.201Z,93784.89
2018-08-06T19:21:27.899Z,93779.50
2018-08-06T19:24:01.183Z,93777.15
2018-08-06T19:26:28.881Z,93780.15
2018-08-06T19:28:56.624Z,93787.79
2018-08-06T19:31:25.194Z,93788.38
2018-08-06T19:33:53.355Z,93787.86
2018-08-06T19:36:21.166Z,93784.28
2018-08-06T19:38:48.930Z,93786.22
2018-08-06T19:41:16.655Z,93782.17
2018-08-06T19:43:44.609Z,93782.17
2018-08-06T19:46:12.368Z,93783.38
2018-08-06T19:48:40.146Z,93783.74
2018-08-06T19:51:07.901Z,93782.67
2018-08-06T19:53:35.685Z,93784.98
2018-08-06T19:56:09.074Z,93786.92
2018-08-06T19:58:36.830Z,93779.77
2018-08-06T20:01:04.586Z,93779.37
2018-08-06T20:03:32.349Z,93788.32
2018-08-06T20:06:00.052Z,93784.55
2018-08-06T20:08:27.839Z,93785.68
2018-08-06T20:10:55.633Z,93781.86
2018-08-06T20:13:23.530Z,93782.62
2018-08-06T20:15:51.309Z,93781.27
2018-08-06T20:18:19.932Z,93780.78
2018-08-06T20:20:47.684Z,93769.77
2018-08-06T20:23:15.399Z,93773.61
2018-08-06T20:25:43.097Z,93765.85
2018-08-06T20:28:10.807Z,93770.69
2018-08-06T20:30:38.479Z,93768.81
2018-08-06T20:33:06.223Z,93767.15
2018-08-06T20:35:33.960Z,93768.54
2018-08-06T20:38:01.667Z,93770.36
2018-08-06T20:40:29.839Z,93773.83
2018-08-06T20:42:57.564Z,93774.06
2018-08-06T20:45:25.279Z,93776.80
2018-08-06T20:47:53.011Z,93781.69
2018-08-06T20:50:21.879Z,93777.86
2018-08-06T20:52:50.893Z,93780.48
2018-08-06T20:55:18.663Z,93776.11
2018-08-06T20:57:46.779Z,93789.77
2018-08-06T21:00:19.615Z,93789.77
2018-08-06T21:02:48.267Z,93787.73
2018-08-06T21:05:16.274Z,93800.16
2018-08-06T21:07:44.022Z,93797.68
2018-08-06T21:10:13.037Z,93792.46
2018-08-06T21:12:40.778Z,93795.27
2018-08-06T21:15:09.557Z,93795.31
2018-08-06T21:17:37.645Z,93796.45
2018-08-06T21:20:06.539Z,93801.32
2018-08-06T21:22:34.296Z,93801.61
2018-08-06T21:25:02.038Z,93804.50
2018-08-06T21:27:29.781Z,93802.66
2018-08-06T21:29:57.459Z,93810.89
2018-08-06T21:32:25.174Z,93806.69
2018-08-06T21:34:52.890Z,93808.27
2018-08-06T21:37:20.627Z,93807.19
2018-08-06T21:39:48.320Z,93809.88
2018-08-06T21:42:16.401Z,93815.30
2018-08-06T21:44:44.202Z,93814.16
2018-08-06T21:47:11.871Z,93821.09
2018-08-06T21:49:39.904Z,93814.74
2018-08-06T21:52:07.621Z,93815.07
2018-08-06T21:54:35.393Z,93816.75
2018-08-06T21:57:03.142Z,93808.98
2018-08-06T21:59:30.921Z,93808.64
2018-08-06T22:01:58.594Z,93810.33
2018-08-06T22:04:26.323Z,93818.46
2018-08-06T22:06:54.059Z,93808.05
2018-08-06T22:09:21.756Z,93803.53
2018-08-06T22:11:49.508Z,93797.70
2018-08-06T22:14:17.231Z,93798.34
2018-08-06T22:16:44.946Z,93798.58
2018-08-06T22:19:12.666Z,93794.05
2018-08-06T22:21:40.370Z,93805.02
2018-08-06T22:24:08.378Z,93792.69
2018-08-06T22:26:36.446Z,93798.14
2018-08-06T22:29:04.555Z,93794.12
2018-08-06T22:31:32.282Z,93799.23
2018-08-06T22:34:00.067Z,93785.62
2018-08-06T22:36:27.663Z,93788.36
2018-08-06T22:38:55.373Z,93792.09
2018-08-06T22:41:23.849Z,93791.03
2018-08-06T22:43:51.903Z,93791.59
2018-08-06T22:46:19.821Z,93799.08
2018-08-06T22:48:47.527Z,93795.58
2018-08-06T22:51:15.222Z,93790.25
2018-08-06T22:53:43.083Z,93778.44
2018-08-06T22:56:11.277Z,93778.73
2018-08-06T22:58:39.118Z,93779.25
2018-08-06T23:01:07.527Z,93776.28
2018-08-06T23:03:35.266Z,93769.91
2018-08-06T23:06:03.039Z,93770.68
2018-08-06T23:08:30.719Z,93772.84
2018-08-06T23:10:58.754Z,93775.20
2018-08-06T23:13:26.454Z,93767.17
2018-08-06T23:15:54.186Z,93768.75
2018-08-06T23:18:21.919Z,93769.58
2018-08-06T23:20:49.605Z,93768.80
2018-08-06T23:23:17.469Z,93770.97
2018-08-06T23:25:45.150Z,93773.08
2018-08-06T23:28:12.853Z,93782.22
2018-08-06T23:30:40.655Z,93776.04
2018-08-06T23:33:08.339Z,93772.83
2018-08-06T23:35:36.042Z,93764.25
2018-08-06T23:38:03.751Z,93766.87
2018-08-06T23:40:31.447Z,93764.23
2018-08-06T23:42:59.144Z,93759.97
2018-08-06T23:45:26.857Z,93761.59
2018-08-06T23:47:54.603Z,93758.72
2018-08-06T23:50:22.246Z,93763.82
2018-08-06T23:52:49.970Z,93753.66
2018-08-06T23:55:18.050Z,93756.84
2018-08-06T23:57:46.046Z,93754.39
